sensor_id;sensor_type;location;lat;lon;timestamp;temperature;humidity
29577;DHT22;16509;53.862;10.672;2022-09-27T00:02:00;10.70;99.90
29577;DHT22;16509;53.862;10.672;2022-09-27T00:04:26;10.20;99.90
29577;DHT22;16509;53.862;10.672;2022-09-27T00:06:52;10.20;99.90
29577;DHT22;16509;53.862;10.672;2022-09-27T00:09:18;10.20;99.90
29577;DHT22;16509;53.862;10.672;2022-09-27T00:11:44;10.20;99.90
29577;DHT22;16509;53.862;10.672;2022-09-27T00:14:13;10.70;99.90
29577;DHT22;16509;53.862;10.672;2022-09-27T00:16:40;10.20;99.90
29577;DHT22;16509;53.862;10.672;2022-09-27T00:19:10;10.00;99.90
29577;DHT22;16509;53.862;10.672;2022-09-27T00:21:36;10.20;99.90
29577;DHT22;16509;53.862;10.672;2022-09-27T00:24:01;10.60;99.90
29577;DHT22;16509;53.862;10.672;2022-09-27T00:26:27;10.20;99.90
29577;DHT22;16509;53.862;10.672;2022-09-27T00:28:54;10.20;99.90
29577;DHT22;16509;53.862;10.672;2022-09-27T00:31:25;10.10;99.90
29577;DHT22;16509;53.862;10.672;2022-09-27T00:33:53;10.20;99.90
29577;DHT22;16509;53.862;10.672;2022-09-27T00:36:20;10.10;99.90
29577;DHT22;16509;53.862;10.672;2022-09-27T00:38:47;10.10;99.90
29577;DHT22;16509;53.862;10.672;2022-09-27T00:41:19;10.20;99.90
29577;DHT22;16509;53.862;10.672;2022-09-27T00:43:55;10.20;99.90
29577;DHT22;16509;53.862;10.672;2022-09-27T00:46:41;10.20;99.90
29577;DHT22;16509;53.862;10.672;2022-09-27T00:49:26;10.20;99.90
29577;DHT22;16509;53.862;10.672;2022-09-27T00:51:58;10.20;99.90
29577;DHT22;16509;53.862;10.672;2022-09-27T00:54:27;10.20;99.90
29577;DHT22;16509;53.862;10.672;2022-09-27T00:56:54;10.20;99.90
29577;DHT22;16509;53.862;10.672;2022-09-27T00:59:32;10.20;99.90
29577;DHT22;16509;53.862;10.672;2022-09-27T01:01:58;10.20;99.90
29577;DHT22;16509;53.862;10.672;2022-09-27T01:04:27;10.20;99.90
29577;DHT22;16509;53.862;10.672;2022-09-27T01:06:54;10.20;99.90
29577;DHT22;16509;53.862;10.672;2022-09-27T01:09:20;10.10;99.90
29577;DHT22;16509;53.862;10.672;2022-09-27T01:11:52;10.20;99.90
29577;DHT22;16509;53.862;10.672;2022-09-27T01:16:57;10.20;99.90
29577;DHT22;16509;53.862;10.672;2022-09-27T01:22:21;10.20;99.90
29577;DHT22;16509;53.862;10.672;2022-09-27T01:25:03;10.10;99.90
29577;DHT22;16509;53.862;10.672;2022-09-27T01:27:53;10.20;99.90
29577;DHT22;16509;53.862;10.672;2022-09-27T01:30:27;10.30;99.90
29577;DHT22;16509;53.862;10.672;2022-09-27T01:33:22;10.20;99.90
29577;DHT22;16509;53.862;10.672;2022-09-27T01:41:18;10.20;99.90
29577;DHT22;16509;53.862;10.672;2022-09-27T01:44:00;10.20;99.90
29577;DHT22;16509;53.862;10.672;2022-09-27T01:46:36;10.20;99.90
29577;DHT22;16509;53.862;10.672;2022-09-27T01:49:08;10.20;99.90
29577;DHT22;16509;53.862;10.672;2022-09-27T01:51:49;10.20;99.90
29577;DHT22;16509;53.862;10.672;2022-09-27T01:54:23;10.20;99.90
29577;DHT22;16509;53.862;10.672;2022-09-27T01:56:53;10.30;99.90
29577;DHT22;16509;53.862;10.672;2022-09-27T01:59:22;10.20;99.90
29577;DHT22;16509;53.862;10.672;2022-09-27T02:01:51;10.10;99.90
29577;DHT22;16509;53.862;10.672;2022-09-27T02:04:21;10.10;99.90
29577;DHT22;16509;53.862;10.672;2022-09-27T02:06:52;9.70;99.90
29577;DHT22;16509;53.862;10.672;2022-09-27T02:09:24;10.20;99.90
29577;DHT22;16509;53.862;10.672;2022-09-27T02:11:56;11.10;99.90
29577;DHT22;16509;53.862;10.672;2022-09-27T02:14:43;10.20;99.90
29577;DHT22;16509;53.862;10.672;2022-09-27T02:17:30;10.20;99.90
29577;DHT22;16509;53.862;10.672;2022-09-27T02:20:19;10.20;99.90
29577;DHT22;16509;53.862;10.672;2022-09-27T02:23:04;10.20;99.90
29577;DHT22;16509;53.862;10.672;2022-09-27T02:25:43;10.20;99.90
29577;DHT22;16509;53.862;10.672;2022-09-27T02:28:30;10.20;99.90
29577;DHT22;16509;53.862;10.672;2022-09-27T02:30:59;10.20;99.90
29577;DHT22;16509;53.862;10.672;2022-09-27T02:33:46;10.20;99.90
29577;DHT22;16509;53.862;10.672;2022-09-27T02:36:13;10.20;99.90
29577;DHT22;16509;53.862;10.672;2022-09-27T02:38:40;10.20;99.90
29577;DHT22;16509;53.862;10.672;2022-09-27T02:41:16;10.30;99.90
29577;DHT22;16509;53.862;10.672;2022-09-27T02:43:45;10.30;99.90
29577;DHT22;16509;53.862;10.672;2022-09-27T02:49:23;10.30;99.90
29577;DHT22;16509;53.862;10.672;2022-09-27T03:02:37;10.30;99.90
29577;DHT22;16509;53.862;10.672;2022-09-27T03:05:13;10.20;99.90
29577;DHT22;16509;53.862;10.672;2022-09-27T03:07:41;10.20;99.90
29577;DHT22;16509;53.862;10.672;2022-09-27T03:10:19;10.20;99.90
29577;DHT22;16509;53.862;10.672;2022-09-27T03:12:45;10.30;99.90
29577;DHT22;16509;53.862;10.672;2022-09-27T03:15:11;10.30;99.90
29577;DHT22;16509;53.862;10.672;2022-09-27T03:17:36;10.30;99.90
29577;DHT22;16509;53.862;10.672;2022-09-27T03:20:03;10.40;99.90
29577;DHT22;16509;53.862;10.672;2022-09-27T03:22:28;10.30;99.90
29577;DHT22;16509;53.862;10.672;2022-09-27T03:24:54;10.20;99.90
29577;DHT22;16509;53.862;10.672;2022-09-27T03:27:19;10.20;99.90
29577;DHT22;16509;53.862;10.672;2022-09-27T03:29:45;10.30;99.90
29577;DHT22;16509;53.862;10.672;2022-09-27T03:32:11;10.30;99.90
29577;DHT22;16509;53.862;10.672;2022-09-27T03:34:36;10.20;99.90
29577;DHT22;16509;53.862;10.672;2022-09-27T03:37:02;10.30;99.90
29577;DHT22;16509;53.862;10.672;2022-09-27T03:39:28;10.30;99.90
29577;DHT22;16509;53.862;10.672;2022-09-27T03:41:53;10.30;99.90
29577;DHT22;16509;53.862;10.672;2022-09-27T03:44:19;10.30;99.90
29577;DHT22;16509;53.862;10.672;2022-09-27T03:46:45;10.30;99.90
29577;DHT22;16509;53.862;10.672;2022-09-27T03:49:10;10.30;99.90
29577;DHT22;16509;53.862;10.672;2022-09-27T03:51:36;10.30;99.90
29577;DHT22;16509;53.862;10.672;2022-09-27T03:54:02;10.30;99.90
29577;DHT22;16509;53.862;10.672;2022-09-27T03:56:27;10.30;99.90
29577;DHT22;16509;53.862;10.672;2022-09-27T03:58:53;10.40;99.90
29577;DHT22;16509;53.862;10.672;2022-09-27T04:01:19;10.30;99.90
29577;DHT22;16509;53.862;10.672;2022-09-27T04:03:44;10.30;99.90
29577;DHT22;16509;53.862;10.672;2022-09-27T04:06:10;10.30;99.90
29577;DHT22;16509;53.862;10.672;2022-09-27T04:08:36;10.30;99.90
29577;DHT22;16509;53.862;10.672;2022-09-27T04:11:01;10.30;99.90
29577;DHT22;16509;53.862;10.672;2022-09-27T04:13:28;10.40;99.90
29577;DHT22;16509;53.862;10.672;2022-09-27T04:15:53;10.30;99.90
29577;DHT22;16509;53.862;10.672;2022-09-27T04:18:19;10.40;99.90
29577;DHT22;16509;53.862;10.672;2022-09-27T04:20:45;10.30;99.90
29577;DHT22;16509;53.862;10.672;2022-09-27T04:23:11;10.30;99.90
29577;DHT22;16509;53.862;10.672;2022-09-27T04:25:36;10.30;99.90
29577;DHT22;16509;53.862;10.672;2022-09-27T04:28:04;10.30;99.90
29577;DHT22;16509;53.862;10.672;2022-09-27T04:30:30;10.30;99.90
29577;DHT22;16509;53.862;10.672;2022-09-27T04:32:56;10.30;99.90
29577;DHT22;16509;53.862;10.672;2022-09-27T04:35:22;10.30;99.90
29577;DHT22;16509;53.862;10.672;2022-09-27T04:38:06;10.30;99.90
29577;DHT22;16509;53.862;10.672;2022-09-27T04:40:34;10.30;99.90
29577;DHT22;16509;53.862;10.672;2022-09-27T04:43:00;10.60;99.90
29577;DHT22;16509;53.862;10.672;2022-09-27T04:45:26;10.40;99.90
29577;DHT22;16509;53.862;10.672;2022-09-27T04:47:52;9.80;99.90
29577;DHT22;16509;53.862;10.672;2022-09-27T04:50:18;11.10;99.90
29577;DHT22;16509;53.862;10.672;2022-09-27T04:52:52;10.70;99.90
29577;DHT22;16509;53.862;10.672;2022-09-27T04:55:18;10.40;99.90
29577;DHT22;16509;53.862;10.672;2022-09-27T04:57:45;11.10;99.90
29577;DHT22;16509;53.862;10.672;2022-09-27T05:00:12;10.80;99.90
29577;DHT22;16509;53.862;10.672;2022-09-27T05:02:38;10.40;99.90
29577;DHT22;16509;53.862;10.672;2022-09-27T05:05:03;10.40;99.90
29577;DHT22;16509;53.862;10.672;2022-09-27T05:07:32;10.30;99.90
29577;DHT22;16509;53.862;10.672;2022-09-27T05:09:58;9.90;99.90
29577;DHT22;16509;53.862;10.672;2022-09-27T05:12:24;10.30;99.90
29577;DHT22;16509;53.862;10.672;2022-09-27T05:14:51;10.30;99.90
29577;DHT22;16509;53.862;10.672;2022-09-27T05:17:17;10.30;99.90
29577;DHT22;16509;53.862;10.672;2022-09-27T05:19:44;10.30;99.90
29577;DHT22;16509;53.862;10.672;2022-09-27T05:22:10;10.40;99.90
29577;DHT22;16509;53.862;10.672;2022-09-27T05:24:36;10.30;99.90
29577;DHT22;16509;53.862;10.672;2022-09-27T05:27:03;10.30;99.90
29577;DHT22;16509;53.862;10.672;2022-09-27T05:29:31;10.30;99.90
29577;DHT22;16509;53.862;10.672;2022-09-27T05:31:56;11.00;99.90
29577;DHT22;16509;53.862;10.672;2022-09-27T05:34:23;11.80;99.90
29577;DHT22;16509;53.862;10.672;2022-09-27T05:36:49;11.60;99.90
29577;DHT22;16509;53.862;10.672;2022-09-27T05:39:15;10.80;99.90
29577;DHT22;16509;53.862;10.672;2022-09-27T05:41:42;11.00;99.90
29577;DHT22;16509;53.862;10.672;2022-09-27T05:44:08;10.30;99.90
29577;DHT22;16509;53.862;10.672;2022-09-27T05:46:33;10.30;99.90
29577;DHT22;16509;53.862;10.672;2022-09-27T05:48:59;10.30;99.90
29577;DHT22;16509;53.862;10.672;2022-09-27T05:51:24;10.30;99.90
29577;DHT22;16509;53.862;10.672;2022-09-27T05:53:50;10.40;99.90
29577;DHT22;16509;53.862;10.672;2022-09-27T05:56:16;10.60;99.90
29577;DHT22;16509;53.862;10.672;2022-09-27T05:58:41;10.40;99.90
29577;DHT22;16509;53.862;10.672;2022-09-27T06:01:08;10.30;99.90
29577;DHT22;16509;53.862;10.672;2022-09-27T06:03:34;10.40;99.90
29577;DHT22;16509;53.862;10.672;2022-09-27T06:06:01;11.60;99.90
29577;DHT22;16509;53.862;10.672;2022-09-27T06:08:32;10.50;99.90
29577;DHT22;16509;53.862;10.672;2022-09-27T06:11:08;10.40;99.90
29577;DHT22;16509;53.862;10.672;2022-09-27T06:13:35;10.70;99.90
29577;DHT22;16509;53.862;10.672;2022-09-27T06:16:01;10.40;99.90
29577;DHT22;16509;53.862;10.672;2022-09-27T06:18:27;10.50;99.90
29577;DHT22;16509;53.862;10.672;2022-09-27T06:20:52;10.50;99.90
29577;DHT22;16509;53.862;10.672;2022-09-27T06:23:20;10.50;99.90
29577;DHT22;16509;53.862;10.672;2022-09-27T06:25:50;11.30;99.90
29577;DHT22;16509;53.862;10.672;2022-09-27T06:28:17;11.30;99.90
29577;DHT22;16509;53.862;10.672;2022-09-27T06:30:44;10.70;99.90
29577;DHT22;16509;53.862;10.672;2022-09-27T06:33:13;10.50;99.90
29577;DHT22;16509;53.862;10.672;2022-09-27T06:35:39;10.70;99.90
29577;DHT22;16509;53.862;10.672;2022-09-27T06:38:06;10.60;99.90
29577;DHT22;16509;53.862;10.672;2022-09-27T06:40:34;10.60;99.90
29577;DHT22;16509;53.862;10.672;2022-09-27T06:43:08;10.50;99.90
29577;DHT22;16509;53.862;10.672;2022-09-27T06:45:35;10.60;99.90
29577;DHT22;16509;53.862;10.672;2022-09-27T06:48:05;10.70;99.90
29577;DHT22;16509;53.862;10.672;2022-09-27T06:50:32;10.60;99.90
29577;DHT22;16509;53.862;10.672;2022-09-27T06:52:59;10.60;99.90
29577;DHT22;16509;53.862;10.672;2022-09-27T06:55:24;10.60;99.90
29577;DHT22;16509;53.862;10.672;2022-09-27T06:57:58;10.60;99.90
29577;DHT22;16509;53.862;10.672;2022-09-27T07:00:43;10.60;99.90
29577;DHT22;16509;53.862;10.672;2022-09-27T07:03:11;10.70;99.90
29577;DHT22;16509;53.862;10.672;2022-09-27T07:05:39;10.90;99.90
29577;DHT22;16509;53.862;10.672;2022-09-27T07:08:10;10.70;99.90
29577;DHT22;16509;53.862;10.672;2022-09-27T07:10:39;10.80;99.90
29577;DHT22;16509;53.862;10.672;2022-09-27T07:13:06;10.80;99.90
29577;DHT22;16509;53.862;10.672;2022-09-27T07:15:33;10.80;99.90
29577;DHT22;16509;53.862;10.672;2022-09-27T07:18:02;11.20;99.90
29577;DHT22;16509;53.862;10.672;2022-09-27T07:20:29;10.90;99.90
29577;DHT22;16509;53.862;10.672;2022-09-27T07:22:55;11.00;99.90
29577;DHT22;16509;53.862;10.672;2022-09-27T07:25:21;10.90;99.90
29577;DHT22;16509;53.862;10.672;2022-09-27T07:27:47;10.90;99.90
29577;DHT22;16509;53.862;10.672;2022-09-27T07:30:13;11.00;99.90
29577;DHT22;16509;53.862;10.672;2022-09-27T07:32:39;11.00;99.90
29577;DHT22;16509;53.862;10.672;2022-09-27T07:35:06;11.70;99.90
29577;DHT22;16509;53.862;10.672;2022-09-27T07:37:36;11.10;99.90
29577;DHT22;16509;53.862;10.672;2022-09-27T07:40:04;11.20;99.90
29577;DHT22;16509;53.862;10.672;2022-09-27T07:42:35;11.10;99.90
29577;DHT22;16509;53.862;10.672;2022-09-27T07:45:06;11.20;99.90
29577;DHT22;16509;53.862;10.672;2022-09-27T07:47:32;11.20;99.90
29577;DHT22;16509;53.862;10.672;2022-09-27T07:49:57;11.60;99.90
29577;DHT22;16509;53.862;10.672;2022-09-27T07:52:23;11.10;99.90
29577;DHT22;16509;53.862;10.672;2022-09-27T07:54:49;11.00;99.90
29577;DHT22;16509;53.862;10.672;2022-09-27T07:57:16;11.30;99.90
29577;DHT22;16509;53.862;10.672;2022-09-27T07:59:42;11.20;99.90
29577;DHT22;16509;53.862;10.672;2022-09-27T08:02:15;11.30;99.90
29577;DHT22;16509;53.862;10.672;2022-09-27T08:04:41;11.30;99.90
29577;DHT22;16509;53.862;10.672;2022-09-27T08:07:13;11.30;99.90
29577;DHT22;16509;53.862;10.672;2022-09-27T08:09:39;11.20;99.90
29577;DHT22;16509;53.862;10.672;2022-09-27T08:12:05;11.20;99.90
29577;DHT22;16509;53.862;10.672;2022-09-27T08:14:30;11.10;99.90
29577;DHT22;16509;53.862;10.672;2022-09-27T08:16:56;11.30;99.90
29577;DHT22;16509;53.862;10.672;2022-09-27T08:19:22;11.40;99.90
29577;DHT22;16509;53.862;10.672;2022-09-27T08:21:47;11.30;99.90
29577;DHT22;16509;53.862;10.672;2022-09-27T08:24:15;11.40;99.90
29577;DHT22;16509;53.862;10.672;2022-09-27T08:26:41;11.40;99.90
29577;DHT22;16509;53.862;10.672;2022-09-27T08:29:06;11.30;99.90
29577;DHT22;16509;53.862;10.672;2022-09-27T08:31:32;11.80;99.90
29577;DHT22;16509;53.862;10.672;2022-09-27T08:33:57;11.30;99.90
29577;DHT22;16509;53.862;10.672;2022-09-27T08:36:23;11.30;99.90
29577;DHT22;16509;53.862;10.672;2022-09-27T08:38:50;11.40;99.90
29577;DHT22;16509;53.862;10.672;2022-09-27T08:41:39;11.60;99.90
29577;DHT22;16509;53.862;10.672;2022-09-27T08:47:10;11.30;99.90
29577;DHT22;16509;53.862;10.672;2022-09-27T08:49:42;11.30;99.90
29577;DHT22;16509;53.862;10.672;2022-09-27T08:52:21;11.40;99.90
29577;DHT22;16509;53.862;10.672;2022-09-27T08:54:48;11.50;99.90
29577;DHT22;16509;53.862;10.672;2022-09-27T08:57:14;11.50;99.90
29577;DHT22;16509;53.862;10.672;2022-09-27T09:00:07;11.50;99.90
29577;DHT22;16509;53.862;10.672;2022-09-27T09:02:36;11.50;99.90
29577;DHT22;16509;53.862;10.672;2022-09-27T09:05:13;11.40;99.90
29577;DHT22;16509;53.862;10.672;2022-09-27T09:16:36;11.30;99.90
29577;DHT22;16509;53.862;10.672;2022-09-27T09:21:47;11.30;99.90
29577;DHT22;16509;53.862;10.672;2022-09-27T09:24:23;11.30;99.90
29577;DHT22;16509;53.862;10.672;2022-09-27T09:27:42;11.20;99.90
29577;DHT22;16509;53.862;10.672;2022-09-27T09:30:24;11.20;99.90
29577;DHT22;16509;53.862;10.672;2022-09-27T09:35:56;11.30;99.90
29577;DHT22;16509;53.862;10.672;2022-09-27T09:38:26;11.30;99.90
29577;DHT22;16509;53.862;10.672;2022-09-27T09:44:00;11.40;99.90
29577;DHT22;16509;53.862;10.672;2022-09-27T09:46:41;11.40;99.90
29577;DHT22;16509;53.862;10.672;2022-09-27T09:49:15;11.40;99.90
29577;DHT22;16509;53.862;10.672;2022-09-27T09:51:46;11.40;99.90
29577;DHT22;16509;53.862;10.672;2022-09-27T09:54:21;11.50;99.90
29577;DHT22;16509;53.862;10.672;2022-09-27T09:57:02;11.70;99.90
29577;DHT22;16509;53.862;10.672;2022-09-27T09:59:39;11.50;99.90
29577;DHT22;16509;53.862;10.672;2022-09-27T10:04:50;11.60;99.90
29577;DHT22;16509;53.862;10.672;2022-09-27T10:07:19;11.70;99.90
29577;DHT22;16509;53.862;10.672;2022-09-27T10:09:46;11.80;99.90
29577;DHT22;16509;53.862;10.672;2022-09-27T10:12:11;12.20;99.90
29577;DHT22;16509;53.862;10.672;2022-09-27T10:14:37;12.00;99.90
29577;DHT22;16509;53.862;10.672;2022-09-27T10:17:05;12.10;99.90
29577;DHT22;16509;53.862;10.672;2022-09-27T10:19:35;12.00;99.90
29577;DHT22;16509;53.862;10.672;2022-09-27T10:22:18;12.30;99.90
29577;DHT22;16509;53.862;10.672;2022-09-27T10:27:18;11.90;99.90
29577;DHT22;16509;53.862;10.672;2022-09-27T10:29:44;11.80;99.90
29577;DHT22;16509;53.862;10.672;2022-09-27T10:32:27;11.70;99.90
29577;DHT22;16509;53.862;10.672;2022-09-27T10:35:16;11.70;99.90
29577;DHT22;16509;53.862;10.672;2022-09-27T10:37:41;11.60;99.90
29577;DHT22;16509;53.862;10.672;2022-09-27T10:40:27;11.70;99.90
29577;DHT22;16509;53.862;10.672;2022-09-27T10:42:53;11.70;99.90
29577;DHT22;16509;53.862;10.672;2022-09-27T10:45:32;12.00;99.90
29577;DHT22;16509;53.862;10.672;2022-09-27T10:47:59;11.80;99.90
29577;DHT22;16509;53.862;10.672;2022-09-27T10:50:28;11.90;99.90
29577;DHT22;16509;53.862;10.672;2022-09-27T10:53:19;11.80;99.90
29577;DHT22;16509;53.862;10.672;2022-09-27T10:55:50;12.00;99.90
29577;DHT22;16509;53.862;10.672;2022-09-27T10:58:19;12.00;99.90
29577;DHT22;16509;53.862;10.672;2022-09-27T11:00:58;11.90;99.90
29577;DHT22;16509;53.862;10.672;2022-09-27T11:03:26;11.70;99.90
29577;DHT22;16509;53.862;10.672;2022-09-27T11:05:53;11.50;99.90
29577;DHT22;16509;53.862;10.672;2022-09-27T11:08:37;11.50;99.90
29577;DHT22;16509;53.862;10.672;2022-09-27T11:11:19;11.40;99.90
29577;DHT22;16509;53.862;10.672;2022-09-27T11:14:16;11.40;99.90
29577;DHT22;16509;53.862;10.672;2022-09-27T11:22:56;11.30;99.90
29577;DHT22;16509;53.862;10.672;2022-09-27T11:34:53;11.00;99.90
29577;DHT22;16509;53.862;10.672;2022-09-27T11:37:14;10.90;99.90
29577;DHT22;16509;53.862;10.672;2022-09-27T11:42:43;11.00;99.90
29577;DHT22;16509;53.862;10.672;2022-09-27T11:45:22;11.00;99.90
29577;DHT22;16509;53.862;10.672;2022-09-27T11:53:38;11.20;99.90
29577;DHT22;16509;53.862;10.672;2022-09-27T11:56:31;11.20;99.90
29577;DHT22;16509;53.862;10.672;2022-09-27T11:59:28;11.20;99.90
29577;DHT22;16509;53.862;10.672;2022-09-27T12:02:14;11.30;99.90
29577;DHT22;16509;53.862;10.672;2022-09-27T12:05:19;11.40;99.90
29577;DHT22;16509;53.862;10.672;2022-09-27T12:10:46;11.30;99.90
29577;DHT22;16509;53.862;10.672;2022-09-27T12:13:13;11.30;99.90
29577;DHT22;16509;53.862;10.672;2022-09-27T12:15:42;11.20;99.90
29577;DHT22;16509;53.862;10.672;2022-09-27T12:18:26;11.20;99.90
29577;DHT22;16509;53.862;10.672;2022-09-27T12:20:54;11.20;99.90
29577;DHT22;16509;53.862;10.672;2022-09-27T12:23:25;11.30;99.90
29577;DHT22;16509;53.862;10.672;2022-09-27T12:25:57;11.30;99.90
29577;DHT22;16509;53.862;10.672;2022-09-27T12:34:21;11.50;99.90
29577;DHT22;16509;53.862;10.672;2022-09-27T12:37:00;11.50;99.90
29577;DHT22;16509;53.862;10.672;2022-09-27T12:42:02;11.60;99.90
29577;DHT22;16509;53.862;10.672;2022-09-27T12:44:37;11.50;99.90
29577;DHT22;16509;53.862;10.672;2022-09-27T12:47:18;11.60;99.90
29577;DHT22;16509;53.862;10.672;2022-09-27T12:52:23;11.50;99.90
29577;DHT22;16509;53.862;10.672;2022-09-27T12:55:21;11.40;99.90
29577;DHT22;16509;53.862;10.672;2022-09-27T13:00:32;11.40;99.90
29577;DHT22;16509;53.862;10.672;2022-09-27T13:06:11;11.30;99.90
29577;DHT22;16509;53.862;10.672;2022-09-27T13:09:25;11.40;99.90
29577;DHT22;16509;53.862;10.672;2022-09-27T13:11:53;11.40;99.90
29577;DHT22;16509;53.862;10.672;2022-09-27T13:14:24;11.40;99.90
29577;DHT22;16509;53.862;10.672;2022-09-27T13:16:51;11.40;99.90
29577;DHT22;16509;53.862;10.672;2022-09-27T13:24:53;11.40;99.90
29577;DHT22;16509;53.862;10.672;2022-09-27T13:29:47;11.50;99.90
29577;DHT22;16509;53.862;10.672;2022-09-27T13:32:23;11.50;99.90
29577;DHT22;16509;53.862;10.672;2022-09-27T13:34:54;11.60;99.90
29577;DHT22;16509;53.862;10.672;2022-09-27T13:45:48;11.40;99.90
29577;DHT22;16509;53.862;10.672;2022-09-27T13:51:41;11.60;99.90
29577;DHT22;16509;53.862;10.672;2022-09-27T13:57:00;11.60;99.90
29577;DHT22;16509;53.862;10.672;2022-09-27T13:59:34;11.60;99.90
29577;DHT22;16509;53.862;10.672;2022-09-27T14:04:42;11.60;99.90
29577;DHT22;16509;53.862;10.672;2022-09-27T14:07:14;11.70;99.90
29577;DHT22;16509;53.862;10.672;2022-09-27T14:09:44;11.70;99.90
29577;DHT22;16509;53.862;10.672;2022-09-27T14:12:16;11.70;99.90
29577;DHT22;16509;53.862;10.672;2022-09-27T14:14:44;11.80;99.90
29577;DHT22;16509;53.862;10.672;2022-09-27T14:17:12;11.70;99.90
29577;DHT22;16509;53.862;10.672;2022-09-27T14:19:39;11.70;99.90
29577;DHT22;16509;53.862;10.672;2022-09-27T14:22:11;11.70;99.90
29577;DHT22;16509;53.862;10.672;2022-09-27T14:29:51;11.70;99.90
29577;DHT22;16509;53.862;10.672;2022-09-27T14:32:24;11.60;99.90
29577;DHT22;16509;53.862;10.672;2022-09-27T14:35:20;11.50;99.90
29577;DHT22;16509;53.862;10.672;2022-09-27T14:38:07;11.50;99.90
29577;DHT22;16509;53.862;10.672;2022-09-27T14:40:40;11.60;99.90
29577;DHT22;16509;53.862;10.672;2022-09-27T14:43:19;11.60;99.90
29577;DHT22;16509;53.862;10.672;2022-09-27T14:45:47;11.60;99.90
29577;DHT22;16509;53.862;10.672;2022-09-27T14:48:31;11.60;99.90
29577;DHT22;16509;53.862;10.672;2022-09-27T14:51:03;11.60;99.90
29577;DHT22;16509;53.862;10.672;2022-09-27T14:53:32;11.70;99.90
29577;DHT22;16509;53.862;10.672;2022-09-27T14:56:00;11.70;99.90
29577;DHT22;16509;53.862;10.672;2022-09-27T14:58:26;11.60;99.90
29577;DHT22;16509;53.862;10.672;2022-09-27T15:00:53;11.60;99.90
29577;DHT22;16509;53.862;10.672;2022-09-27T15:03:28;11.60;99.90
29577;DHT22;16509;53.862;10.672;2022-09-27T15:05:57;11.50;99.90
29577;DHT22;16509;53.862;10.672;2022-09-27T15:08:26;11.50;99.90
29577;DHT22;16509;53.862;10.672;2022-09-27T15:10:52;11.50;99.90
29577;DHT22;16509;53.862;10.672;2022-09-27T15:13:19;11.50;99.90
29577;DHT22;16509;53.862;10.672;2022-09-27T15:15:46;11.50;99.90
29577;DHT22;16509;53.862;10.672;2022-09-27T15:19:01;11.40;99.90
29577;DHT22;16509;53.862;10.672;2022-09-27T15:21:31;11.50;99.90
29577;DHT22;16509;53.862;10.672;2022-09-27T15:23:57;11.50;99.90
29577;DHT22;16509;53.862;10.672;2022-09-27T15:26:35;11.40;99.90
29577;DHT22;16509;53.862;10.672;2022-09-27T15:29:02;11.40;99.90
29577;DHT22;16509;53.862;10.672;2022-09-27T15:31:30;11.40;99.90
29577;DHT22;16509;53.862;10.672;2022-09-27T15:33:56;11.40;99.90
29577;DHT22;16509;53.862;10.672;2022-09-27T15:36:58;11.40;99.90
29577;DHT22;16509;53.862;10.672;2022-09-27T15:39:35;11.40;99.90
29577;DHT22;16509;53.862;10.672;2022-09-27T15:42:19;11.30;99.90
29577;DHT22;16509;53.862;10.672;2022-09-27T15:44:51;11.30;99.90
29577;DHT22;16509;53.862;10.672;2022-09-27T15:52:44;11.30;99.90
29577;DHT22;16509;53.862;10.672;2022-09-27T15:55:21;11.40;99.90
29577;DHT22;16509;53.862;10.672;2022-09-27T16:00:25;11.30;99.90
29577;DHT22;16509;53.862;10.672;2022-09-27T16:02:51;11.40;99.90
29577;DHT22;16509;53.862;10.672;2022-09-27T16:05:17;11.30;99.90
29577;DHT22;16509;53.862;10.672;2022-09-27T16:07:42;11.30;99.90
29577;DHT22;16509;53.862;10.672;2022-09-27T16:10:16;11.30;99.90
29577;DHT22;16509;53.862;10.672;2022-09-27T16:12:42;11.30;99.90
29577;DHT22;16509;53.862;10.672;2022-09-27T16:15:10;11.30;99.90
29577;DHT22;16509;53.862;10.672;2022-09-27T16:17:36;11.30;99.90
29577;DHT22;16509;53.862;10.672;2022-09-27T16:20:03;11.30;99.90
29577;DHT22;16509;53.862;10.672;2022-09-27T16:22:29;11.30;99.90
29577;DHT22;16509;53.862;10.672;2022-09-27T16:24:55;11.20;99.90
29577;DHT22;16509;53.862;10.672;2022-09-27T16:27:26;11.20;99.90
29577;DHT22;16509;53.862;10.672;2022-09-27T16:29:55;11.20;99.90
29577;DHT22;16509;53.862;10.672;2022-09-27T16:32:22;11.10;99.90
29577;DHT22;16509;53.862;10.672;2022-09-27T16:34:48;11.10;99.90
29577;DHT22;16509;53.862;10.672;2022-09-27T16:37:14;11.90;99.90
29577;DHT22;16509;53.862;10.672;2022-09-27T16:39:39;11.10;99.90
29577;DHT22;16509;53.862;10.672;2022-09-27T16:42:05;11.00;99.90
29577;DHT22;16509;53.862;10.672;2022-09-27T16:44:32;11.00;99.90
29577;DHT22;16509;53.862;10.672;2022-09-27T16:47:03;11.00;99.90
29577;DHT22;16509;53.862;10.672;2022-09-27T16:49:29;11.00;99.90
29577;DHT22;16509;53.862;10.672;2022-09-27T16:52:15;11.10;99.90
29577;DHT22;16509;53.862;10.672;2022-09-27T16:54:41;11.00;99.90
29577;DHT22;16509;53.862;10.672;2022-09-27T16:57:07;11.00;99.90
29577;DHT22;16509;53.862;10.672;2022-09-27T16:59:33;11.00;99.90
29577;DHT22;16509;53.862;10.672;2022-09-27T17:01:58;11.00;99.90
29577;DHT22;16509;53.862;10.672;2022-09-27T17:04:25;11.00;99.90
29577;DHT22;16509;53.862;10.672;2022-09-27T17:06:52;11.00;99.90
29577;DHT22;16509;53.862;10.672;2022-09-27T17:09:18;11.00;99.90
29577;DHT22;16509;53.862;10.672;2022-09-27T17:11:44;11.00;99.90
29577;DHT22;16509;53.862;10.672;2022-09-27T17:14:13;11.00;99.90
29577;DHT22;16509;53.862;10.672;2022-09-27T17:16:42;11.00;99.90
29577;DHT22;16509;53.862;10.672;2022-09-27T17:19:08;10.90;99.90
29577;DHT22;16509;53.862;10.672;2022-09-27T17:21:37;10.90;99.90
29577;DHT22;16509;53.862;10.672;2022-09-27T17:24:03;10.90;99.90
29577;DHT22;16509;53.862;10.672;2022-09-27T17:26:29;10.90;99.90
29577;DHT22;16509;53.862;10.672;2022-09-27T17:28:57;10.90;99.90
29577;DHT22;16509;53.862;10.672;2022-09-27T17:31:23;10.80;99.90
29577;DHT22;16509;53.862;10.672;2022-09-27T17:33:50;10.80;99.90
29577;DHT22;16509;53.862;10.672;2022-09-27T17:36:22;10.80;99.90
29577;DHT22;16509;53.862;10.672;2022-09-27T17:38:49;10.80;99.90
29577;DHT22;16509;53.862;10.672;2022-09-27T17:41:17;10.70;99.90
29577;DHT22;16509;53.862;10.672;2022-09-27T17:43:44;10.70;99.90
29577;DHT22;16509;53.862;10.672;2022-09-27T17:46:17;10.70;99.90
29577;DHT22;16509;53.862;10.672;2022-09-27T17:48:43;10.70;99.90
29577;DHT22;16509;53.862;10.672;2022-09-27T17:51:27;10.70;99.90